sensor_id;sensor_type;location;lat;lon;timestamp;P1;durP1;ratioP1;P2;durP2;ratioP2
60430;SDS011;46285;45.122;20.726;2023-04-30T00:00:07;41.15;;;26.25;;
60430;SDS011;46285;45.122;20.726;2023-04-30T00:10:10;37.05;;;25.63;;
60430;SDS011;46285;45.122;20.726;2023-04-30T00:20:12;29.33;;;21.75;;
60430;SDS011;46285;45.122;20.726;2023-04-30T00:30:13;32.70;;;24.10;;
60430;SDS011;46285;45.122;20.726;2023-04-30T00:40:14;34.33;;;23.95;;
60430;SDS011;46285;45.122;20.726;2023-04-30T00:50:15;27.08;;;21.38;;
60430;SDS011;46285;45.122;20.726;2023-04-30T01:00:17;25.35;;;19.05;;
60430;SDS011;46285;45.122;20.726;2023-04-30T01:10:19;27.55;;;17.45;;
60430;SDS011;46285;45.122;20.726;2023-04-30T01:20:21;24.30;;;16.98;;
60430;SDS011;46285;45.122;20.726;2023-04-30T01:30:22;21.70;;;15.93;;
60430;SDS011;46285;45.122;20.726;2023-04-30T01:40:38;19.48;;;15.15;;
60430;SDS011;46285;45.122;20.726;2023-04-30T01:50:46;65.47;;;36.42;;
60430;SDS011;46285;45.122;20.726;2023-04-30T02:10:49;27.58;;;19.02;;
60430;SDS011;46285;45.122;20.726;2023-04-30T02:20:50;48.38;;;28.30;;
60430;SDS011;46285;45.122;20.726;2023-04-30T02:30:52;31.63;;;22.55;;
60430;SDS011;46285;45.122;20.726;2023-04-30T02:40:53;26.20;;;19.45;;
60430;SDS011;46285;45.122;20.726;2023-04-30T02:50:54;27.58;;;20.90;;
60430;SDS011;46285;45.122;20.726;2023-04-30T03:00:55;27.40;;;21.52;;
60430;SDS011;46285;45.122;20.726;2023-04-30T03:10:57;26.85;;;21.02;;
60430;SDS011;46285;45.122;20.726;2023-04-30T03:20:58;24.52;;;20.02;;
60430;SDS011;46285;45.122;20.726;2023-04-30T03:30:59;35.55;;;25.63;;
60430;SDS011;46285;45.122;20.726;2023-04-30T03:41:00;27.33;;;21.35;;
60430;SDS011;46285;45.122;20.726;2023-04-30T03:51:01;20.00;;;16.75;;
60430;SDS011;46285;45.122;20.726;2023-04-30T04:01:03;22.30;;;17.73;;
60430;SDS011;46285;45.122;20.726;2023-04-30T04:11:04;22.35;;;16.17;;
60430;SDS011;46285;45.122;20.726;2023-04-30T04:21:06;20.52;;;15.95;;
60430;SDS011;46285;45.122;20.726;2023-04-30T04:31:07;21.33;;;16.33;;
60430;SDS011;46285;45.122;20.726;2023-04-30T04:41:08;17.05;;;12.25;;
60430;SDS011;46285;45.122;20.726;2023-04-30T04:51:10;18.45;;;14.30;;
60430;SDS011;46285;45.122;20.726;2023-04-30T05:01:11;21.55;;;16.35;;
60430;SDS011;46285;45.122;20.726;2023-04-30T05:11:12;16.45;;;13.65;;
60430;SDS011;46285;45.122;20.726;2023-04-30T05:21:13;22.13;;;16.35;;
60430;SDS011;46285;45.122;20.726;2023-04-30T05:31:15;18.33;;;13.10;;
60430;SDS011;46285;45.122;20.726;2023-04-30T05:41:16;21.05;;;15.63;;
60430;SDS011;46285;45.122;20.726;2023-04-30T05:51:17;11.93;;;8.57;;
60430;SDS011;46285;45.122;20.726;2023-04-30T06:01:19;13.13;;;9.73;;
60430;SDS011;46285;45.122;20.726;2023-04-30T06:11:20;15.02;;;10.32;;
60430;SDS011;46285;45.122;20.726;2023-04-30T06:21:21;14.82;;;10.73;;
60430;SDS011;46285;45.122;20.726;2023-04-30T06:31:23;13.88;;;11.30;;
60430;SDS011;46285;45.122;20.726;2023-04-30T06:41:25;13.48;;;8.25;;
60430;SDS011;46285;45.122;20.726;2023-04-30T06:51:26;16.92;;;10.38;;
60430;SDS011;46285;45.122;20.726;2023-04-30T07:01:27;16.25;;;10.20;;
60430;SDS011;46285;45.122;20.726;2023-04-30T07:11:29;17.08;;;9.77;;
60430;SDS011;46285;45.122;20.726;2023-04-30T07:21:30;20.65;;;10.73;;
60430;SDS011;46285;45.122;20.726;2023-04-30T07:31:32;13.18;;;9.10;;
60430;SDS011;46285;45.122;20.726;2023-04-30T07:41:33;13.65;;;7.97;;
60430;SDS011;46285;45.122;20.726;2023-04-30T07:51:34;12.10;;;7.93;;
60430;SDS011;46285;45.122;20.726;2023-04-30T08:01:39;13.25;;;7.95;;
60430;SDS011;46285;45.122;20.726;2023-04-30T08:11:40;10.30;;;6.07;;
60430;SDS011;46285;45.122;20.726;2023-04-30T08:21:42;10.57;;;6.30;;
60430;SDS011;46285;45.122;20.726;2023-04-30T08:31:43;10.43;;;4.82;;
60430;SDS011;46285;45.122;20.726;2023-04-30T08:41:45;10.55;;;4.40;;
60430;SDS011;46285;45.122;20.726;2023-04-30T08:51:50;7.53;;;4.20;;
60430;SDS011;46285;45.122;20.726;2023-04-30T09:01:52;8.00;;;4.50;;
60430;SDS011;46285;45.122;20.726;2023-04-30T09:22:27;10.20;;;4.97;;
60430;SDS011;46285;45.122;20.726;2023-04-30T09:32:28;14.13;;;10.45;;
60430;SDS011;46285;45.122;20.726;2023-04-30T09:42:29;8.02;;;5.43;;
60430;SDS011;46285;45.122;20.726;2023-04-30T09:52:31;12.15;;;6.50;;
60430;SDS011;46285;45.122;20.726;2023-04-30T10:02:33;15.43;;;9.85;;
60430;SDS011;46285;45.122;20.726;2023-04-30T10:12:38;11.80;;;7.70;;
60430;SDS011;46285;45.122;20.726;2023-04-30T10:22:41;12.85;;;9.30;;
60430;SDS011;46285;45.122;20.726;2023-04-30T10:32:58;13.48;;;9.85;;
60430;SDS011;46285;45.122;20.726;2023-04-30T10:43:04;15.68;;;7.18;;
60430;SDS011;46285;45.122;20.726;2023-04-30T10:53:05;10.18;;;5.82;;
60430;SDS011;46285;45.122;20.726;2023-04-30T11:03:07;14.82;;;7.25;;
60430;SDS011;46285;45.122;20.726;2023-04-30T11:13:08;9.02;;;5.75;;
60430;SDS011;46285;45.122;20.726;2023-04-30T11:23:14;8.85;;;6.10;;
60430;SDS011;46285;45.122;20.726;2023-04-30T11:33:15;7.78;;;5.05;;
60430;SDS011;46285;45.122;20.726;2023-04-30T11:43:20;17.55;;;15.68;;
60430;SDS011;46285;45.122;20.726;2023-04-30T11:53:30;9.40;;;5.32;;
60430;SDS011;46285;45.122;20.726;2023-04-30T12:03:31;8.25;;;5.63;;
60430;SDS011;46285;45.122;20.726;2023-04-30T12:13:33;8.30;;;5.53;;
60430;SDS011;46285;45.122;20.726;2023-04-30T12:23:35;9.55;;;4.82;;
60430;SDS011;46285;45.122;20.726;2023-04-30T12:33:36;9.35;;;5.47;;
60430;SDS011;46285;45.122;20.726;2023-04-30T12:43:37;7.20;;;4.05;;
60430;SDS011;46285;45.122;20.726;2023-04-30T12:53:48;12.48;;;5.82;;
60430;SDS011;46285;45.122;20.726;2023-04-30T13:03:50;8.32;;;4.20;;
60430;SDS011;46285;45.122;20.726;2023-04-30T13:13:53;7.18;;;3.25;;
60430;SDS011;46285;45.122;20.726;2023-04-30T13:23:55;7.28;;;3.78;;
60430;SDS011;46285;45.122;20.726;2023-04-30T13:33:57;8.13;;;3.92;;
60430;SDS011;46285;45.122;20.726;2023-04-30T13:43:59;8.68;;;5.32;;
60430;SDS011;46285;45.122;20.726;2023-04-30T13:54:00;12.60;;;4.20;;
60430;SDS011;46285;45.122;20.726;2023-04-30T14:04:01;9.93;;;5.32;;
60430;SDS011;46285;45.122;20.726;2023-04-30T14:14:03;9.07;;;3.63;;
60430;SDS011;46285;45.122;20.726;2023-04-30T14:24:04;8.85;;;3.85;;
60430;SDS011;46285;45.122;20.726;2023-04-30T14:34:07;12.38;;;4.15;;
60430;SDS011;46285;45.122;20.726;2023-04-30T14:44:09;7.40;;;3.22;;
60430;SDS011;46285;45.122;20.726;2023-04-30T14:54:10;7.20;;;3.35;;
60430;SDS011;46285;45.122;20.726;2023-04-30T15:04:17;7.70;;;4.72;;
60430;SDS011;46285;45.122;20.726;2023-04-30T15:14:23;16.98;;;12.45;;
60430;SDS011;46285;45.122;20.726;2023-04-30T15:24:43;29.35;;;16.00;;
60430;SDS011;46285;45.122;20.726;2023-04-30T15:34:47;22.42;;;9.57;;
60430;SDS011;46285;45.122;20.726;2023-04-30T15:44:48;5.78;;;2.08;;
60430;SDS011;46285;45.122;20.726;2023-04-30T15:55:14;6.90;;;2.33;;
60430;SDS011;46285;45.122;20.726;2023-04-30T16:05:16;6.93;;;2.60;;
60430;SDS011;46285;45.122;20.726;2023-04-30T16:25:28;9.63;;;4.20;;
60430;SDS011;46285;45.122;20.726;2023-04-30T16:35:29;11.27;;;5.15;;
60430;SDS011;46285;45.122;20.726;2023-04-30T16:45:31;6.80;;;3.05;;
60430;SDS011;46285;45.122;20.726;2023-04-30T16:55:34;11.85;;;7.10;;
60430;SDS011;46285;45.122;20.726;2023-04-30T17:05:35;9.55;;;4.38;;
60430;SDS011;46285;45.122;20.726;2023-04-30T17:15:39;7.05;;;3.63;;
60430;SDS011;46285;45.122;20.726;2023-04-30T17:25:40;6.82;;;3.53;;
60430;SDS011;46285;45.122;20.726;2023-04-30T17:35:42;8.48;;;3.70;;
60430;SDS011;46285;45.122;20.726;2023-04-30T17:45:58;14.60;;;10.18;;
60430;SDS011;46285;45.122;20.726;2023-04-30T17:56:01;34.65;;;24.77;;
60430;SDS011;46285;45.122;20.726;2023-04-30T18:06:05;29.08;;;23.70;;
60430;SDS011;46285;45.122;20.726;2023-04-30T18:16:10;32.00;;;26.63;;
60430;SDS011;46285;45.122;20.726;2023-04-30T18:26:11;30.55;;;23.23;;
60430;SDS011;46285;45.122;20.726;2023-04-30T18:36:12;75.35;;;49.00;;
60430;SDS011;46285;45.122;20.726;2023-04-30T18:46:13;55.03;;;33.53;;
60430;SDS011;46285;45.122;20.726;2023-04-30T18:56:14;69.75;;;52.72;;
60430;SDS011;46285;45.122;20.726;2023-04-30T19:06:17;91.55;;;64.40;;
60430;SDS011;46285;45.122;20.726;2023-04-30T19:16:18;80.55;;;52.25;;
60430;SDS011;46285;45.122;20.726;2023-04-30T19:26:19;51.92;;;33.25;;
60430;SDS011;46285;45.122;20.726;2023-04-30T19:36:21;42.38;;;24.63;;
60430;SDS011;46285;45.122;20.726;2023-04-30T19:46:23;23.70;;;12.73;;
60430;SDS011;46285;45.122;20.726;2023-04-30T19:56:27;14.50;;;9.30;;
60430;SDS011;46285;45.122;20.726;2023-04-30T20:06:28;13.07;;;8.95;;
60430;SDS011;46285;45.122;20.726;2023-04-30T20:16:29;12.10;;;6.07;;
60430;SDS011;46285;45.122;20.726;2023-04-30T20:26:31;12.48;;;6.78;;
60430;SDS011;46285;45.122;20.726;2023-04-30T20:36:32;20.27;;;11.65;;
60430;SDS011;46285;45.122;20.726;2023-04-30T20:46:34;16.92;;;11.80;;
60430;SDS011;46285;45.122;20.726;2023-04-30T20:56:35;19.55;;;13.70;;
60430;SDS011;46285;45.122;20.726;2023-04-30T21:06:36;25.77;;;17.88;;
60430;SDS011;46285;45.122;20.726;2023-04-30T21:16:37;23.80;;;15.90;;
60430;SDS011;46285;45.122;20.726;2023-04-30T21:26:39;14.38;;;10.48;;
60430;SDS011;46285;45.122;20.726;2023-04-30T21:36:40;20.35;;;13.52;;
60430;SDS011;46285;45.122;20.726;2023-04-30T21:46:41;29.60;;;20.33;;
60430;SDS011;46285;45.122;20.726;2023-04-30T21:56:42;28.67;;;20.92;;
60430;SDS011;46285;45.122;20.726;2023-04-30T22:06:44;24.38;;;17.23;;
60430;SDS011;46285;45.122;20.726;2023-04-30T22:16:45;25.30;;;16.88;;
60430;SDS011;46285;45.122;20.726;2023-04-30T22:26:46;16.58;;;13.93;;
60430;SDS011;46285;45.122;20.726;2023-04-30T22:36:48;39.85;;;28.00;;
60430;SDS011;46285;45.122;20.726;2023-04-30T22:46:49;22.55;;;17.33;;
60430;SDS011;46285;45.122;20.726;2023-04-30T22:56:50;24.52;;;17.88;;
60430;SDS011;46285;45.122;20.726;2023-04-30T23:06:52;14.40;;;11.45;;
60430;SDS011;46285;45.122;20.726;2023-04-30T23:16:53;16.60;;;9.68;;
60430;SDS011;46285;45.122;20.726;2023-04-30T23:26:54;13.50;;;8.63;;
60430;SDS011;46285;45.122;20.726;2023-04-30T23:36:55;16.30;;;9.35;;
60430;SDS011;46285;45.122;20.726;2023-04-30T23:46:56;23.05;;;16.45;;
60430;SDS011;46285;45.122;20.726;2023-04-30T23:56:57;14.10;;;8.45;;
